Time;durP1;ratioP1;P1;durP2;ratioP2;P2;SDS_P1;SDS_P2;PMS_P1;PMS_P2;Temp;Humidity;BMP_temperature;BMP_pressure;BME280_temperature;BME280_humidity;BME280_pressure;Samples;Min_cycle;Max_cycle;Signal;HPM_P1;HPM_P2
2022/03/19 00:02:26;;;;;;;34.30;9.68;;;3.80;61.20;;;;;;4908129;29;20052;-75
2022/03/19 00:04:55;;;;;;;31.92;11.05;;;3.70;62.00;;;;;;4916144;29;20468;-76
2022/03/19 00:07:22;;;;;;;28.02;10.45;;;3.60;65.40;;;;;;4916434;29;20048;-77
2022/03/19 00:09:50;;;;;;;26.42;8.40;;;3.40;66.70;;;;;;4917049;29;20040;-77
2022/03/19 00:12:18;;;;;;;18.63;6.35;;;3.30;67.50;;;;;;4917126;29;20138;-76
2022/03/19 00:14:45;;;;;;;28.02;10.40;;;3.30;66.60;;;;;;4916304;29;20044;-73
2022/03/19 00:17:13;;;;;;;22.02;8.55;;;3.30;67.20;;;;;;4908255;29;20041;-76
2022/03/19 00:19:41;;;;;;;16.30;7.55;;;3.20;67.80;;;;;;4909306;29;20051;-76
2022/03/19 00:22:10;;;;;;;19.10;7.95;;;3.20;66.90;;;;;;4898116;29;20056;-76
2022/03/19 00:24:38;;;;;;;22.98;7.97;;;3.20;66.60;;;;;;4913958;29;20561;-74
2022/03/19 00:27:06;;;;;;;18.40;8.43;;;3.20;67.30;;;;;;4915532;29;20048;-76
2022/03/19 00:29:34;;;;;;;25.90;7.43;;;3.20;66.70;;;;;;4902884;29;20055;-75
2022/03/19 00:32:01;;;;;;;16.10;6.28;;;3.20;65.90;;;;;;4909456;29;20084;-75
2022/03/19 00:34:29;;;;;;;17.27;7.30;;;3.20;65.70;;;;;;4900719;29;20103;-74
2022/03/19 00:36:57;;;;;;;13.85;7.25;;;3.40;64.20;;;;;;4909752;29;20055;-76
2022/03/19 00:39:26;;;;;;;26.65;9.63;;;3.40;63.70;;;;;;4905314;29;20067;-75
2022/03/19 00:41:54;;;;;;;18.85;8.45;;;3.50;64.80;;;;;;4916771;29;20047;-76
2022/03/19 00:44:22;;;;;;;14.35;7.78;;;3.40;65.80;;;;;;4914934;29;20127;-75
2022/03/19 00:46:50;;;;;;;18.33;6.55;;;3.40;64.60;;;;;;4902261;29;20139;-74
2022/03/19 00:49:19;;;;;;;10.43;5.32;;;3.50;64.00;;;;;;4901475;29;20070;-75
2022/03/19 00:51:47;;;;;;;10.82;5.60;;;3.50;63.20;;;;;;4913119;29;20060;-75
2022/03/19 00:54:15;;;;;;;12.25;5.63;;;3.50;63.00;;;;;;4903338;29;20107;-75
2022/03/19 00:56:46;;;;;;;7.95;5.15;;;3.60;63.00;;;;;;4911550;29;20056;-75
2022/03/19 00:59:14;;;;;;;14.85;6.15;;;3.60;63.00;;;;;;4900737;29;20060;-78
2022/03/19 01:01:41;;;;;;;11.77;5.13;;;3.60;62.80;;;;;;4897029;29;20063;-75
2022/03/19 01:04:09;;;;;;;10.45;5.25;;;3.60;62.70;;;;;;4897845;29;20060;-74
2022/03/19 01:06:36;;;;;;;10.77;5.07;;;3.60;62.50;;;;;;4924919;29;20179;-77
2022/03/19 01:09:04;;;;;;;6.32;4.78;;;3.60;62.80;;;;;;4914262;29;20509;-77
2022/03/19 01:11:31;;;;;;;11.10;4.93;;;3.60;62.90;;;;;;4897171;29;20084;-76
2022/03/19 01:14:00;;;;;;;11.45;5.20;;;3.60;62.80;;;;;;4904365;29;20052;-75
2022/03/19 01:16:28;;;;;;;13.00;5.43;;;3.50;63.20;;;;;;4914187;29;20060;-75
2022/03/19 01:18:55;;;;;;;8.90;5.03;;;3.50;64.10;;;;;;4914612;29;20086;-76
2022/03/19 01:21:24;;;;;;;5.65;4.38;;;3.40;64.50;;;;;;4896792;29;20422;-76
2022/03/19 01:23:51;;;;;;;7.47;4.82;;;3.40;64.40;;;;;;4908709;29;20139;-78
2022/03/19 01:26:19;;;;;;;12.68;4.90;;;3.40;64.40;;;;;;4904027;29;20052;-71
2022/03/19 01:28:46;;;;;;;9.43;5.32;;;3.40;64.90;;;;;;4913256;29;20477;-71
2022/03/19 01:31:15;;;;;;;17.27;6.50;;;3.40;65.30;;;;;;4910176;29;20072;-70
2022/03/19 01:33:42;;;;;;;6.95;5.05;;;3.50;65.50;;;;;;4890371;29;20052;-70
2022/03/19 01:36:10;;;;;;;10.30;5.10;;;3.50;65.20;;;;;;4906377;29;20079;-71
2022/03/19 01:38:38;;;;;;;13.25;5.47;;;3.60;65.00;;;;;;4904279;29;20048;-71
2022/03/19 01:41:06;;;;;;;12.35;5.18;;;3.70;65.20;;;;;;4906270;29;20143;-71
2022/03/19 01:43:35;;;;;;;10.05;5.25;;;3.70;65.10;;;;;;4898861;29;20123;-71
2022/03/19 01:46:03;;;;;;;10.50;5.13;;;3.80;64.70;;;;;;4910214;29;20048;-70
2022/03/19 01:48:31;;;;;;;14.07;5.65;;;3.80;64.50;;;;;;4905848;29;20052;-69
2022/03/19 01:50:59;;;;;;;11.40;5.43;;;3.80;64.30;;;;;;4896561;29;20064;-69
2022/03/19 01:53:28;;;;;;;10.20;5.30;;;3.90;64.80;;;;;;4884321;29;20106;-69
2022/03/19 01:55:56;;;;;;;10.38;4.95;;;3.80;64.50;;;;;;4913909;29;20052;-69
2022/03/19 01:58:24;;;;;;;6.15;4.30;;;3.80;64.70;;;;;;4900482;29;20050;-70
2022/03/19 02:00:52;;;;;;;9.13;5.25;;;3.90;64.50;;;;;;4912954;29;20397;-69
2022/03/19 02:03:20;;;;;;;19.48;5.35;;;4.00;64.70;;;;;;4901980;29;20064;-70
2022/03/19 02:05:49;;;;;;;8.13;5.10;;;4.10;64.80;;;;;;4903451;29;20076;-69
2022/03/19 02:08:18;;;;;;;8.27;4.22;;;4.10;64.90;;;;;;4901108;29;20095;-69
2022/03/19 02:10:46;;;;;;;12.75;5.22;;;4.20;65.00;;;;;;4896389;29;20059;-70
2022/03/19 02:13:14;;;;;;;13.05;5.43;;;4.30;64.50;;;;;;4896299;29;20131;-69
2022/03/19 02:15:41;;;;;;;12.55;4.68;;;4.30;64.40;;;;;;4906501;29;20056;-69
2022/03/19 02:18:09;;;;;;;16.95;4.70;;;4.30;64.20;;;;;;4899273;29;20041;-69
2022/03/19 02:20:36;;;;;;;9.15;5.35;;;4.40;64.70;;;;;;4897136;29;20399;-69
2022/03/19 02:25:50;;;;;;;11.68;5.60;;;4.40;64.40;;;;;;4904925;29;20402;-69
2022/03/19 02:28:17;;;;;;;8.45;5.10;;;4.40;65.60;;;;;;4912934;29;20052;-69
2022/03/19 02:30:45;;;;;;;12.75;5.05;;;4.40;66.20;;;;;;4913569;29;20055;-69
2022/03/19 02:33:13;;;;;;;13.60;5.13;;;4.40;65.20;;;;;;4896599;29;20040;-69
2022/03/19 02:35:40;;;;;;;13.40;5.60;;;4.40;65.30;;;;;;4913124;29;20079;-69
2022/03/19 02:38:11;;;;;;;11.00;5.57;;;4.40;65.10;;;;;;4913457;29;20068;-69
2022/03/19 02:40:38;;;;;;;12.27;5.10;;;4.50;65.20;;;;;;4914746;29;20524;-70
2022/03/19 02:43:06;;;;;;;11.13;5.15;;;4.50;65.60;;;;;;4913269;29;20137;-70
2022/03/19 02:45:33;;;;;;;14.82;5.72;;;4.50;65.70;;;;;;4914757;29;20054;-70
2022/03/19 02:48:01;;;;;;;10.55;5.47;;;4.50;66.30;;;;;;4913994;29;20044;-70
2022/03/19 02:50:31;;;;;;;16.17;5.47;;;4.50;66.30;;;;;;4912389;29;20540;-70
2022/03/19 02:53:01;;;;;;;11.75;5.97;;;4.50;66.30;;;;;;4914092;29;20060;-70
2022/03/19 02:55:34;;;;;;;14.27;6.47;;;4.50;66.30;;;;;;4913321;29;20531;-70
2022/03/19 02:58:02;;;;;;;;;;;4.60;66.60;;;;;;4914739;29;20067;-70
2022/03/19 03:00:32;;;;;;;16.95;5.22;;;4.60;67.50;;;;;;4915566;29;19963;-69
2022/03/19 03:02:59;;;;;;;7.28;4.72;;;4.60;66.60;;;;;;4903439;29;20056;-69
2022/03/19 03:05:27;;;;;;;10.48;5.75;;;4.60;66.90;;;;;;4908209;29;20055;-69
2022/03/19 03:07:57;;;;;;;14.70;6.82;;;4.60;66.90;;;;;;4904033;29;20084;-70
2022/03/19 03:10:25;;;;;;;13.30;4.93;;;4.60;67.20;;;;;;4914402;29;20072;-70
2022/03/19 03:12:54;;;;;;;15.50;5.97;;;4.60;66.90;;;;;;4914412;29;20053;-69
2022/03/19 03:15:23;;;;;;;11.60;4.90;;;4.60;66.90;;;;;;4880620;29;20159;-69
2022/03/19 03:17:50;;;;;;;11.20;6.88;;;4.60;67.30;;;;;;4901987;29;20432;-69
2022/03/19 03:20:18;;;;;;;12.55;5.22;;;4.60;68.00;;;;;;4906301;29;20056;-69
2022/03/19 03:22:45;;;;;;;14.65;5.53;;;4.60;68.40;;;;;;4899319;29;20425;-70
2022/03/19 03:25:12;;;;;;;10.73;5.80;;;4.60;68.60;;;;;;4899371;29;20056;-70
2022/03/19 03:27:40;;;;;;;13.02;6.28;;;4.50;69.20;;;;;;4915909;29;20414;-71
2022/03/19 03:30:10;;;;;;;14.85;7.00;;;4.50;70.20;;;;;;4902055;29;20044;-69
2022/03/19 03:32:38;;;;;;;16.05;6.38;;;4.50;71.20;;;;;;4900279;29;20632;-69
2022/03/19 03:35:06;;;;;;;13.20;6.80;;;4.50;73.90;;;;;;4889135;29;20549;-69
2022/03/19 03:37:35;;;;;;;13.10;6.78;;;4.40;76.60;;;;;;4884492;29;20063;-68
2022/03/19 03:40:02;;;;;;;13.50;7.65;;;4.40;80.10;;;;;;4909229;29;20082;-69
2022/03/19 03:42:30;;;;;;;16.00;8.43;;;4.40;84.60;;;;;;4916741;29;20580;-69
2022/03/19 03:44:58;;;;;;;23.55;9.35;;;4.40;88.10;;;;;;4914524;29;20058;-69
2022/03/19 03:47:28;;;;;;;22.30;10.57;;;4.40;92.10;;;;;;4914659;29;20142;-69
2022/03/19 03:49:56;;;;;;;26.52;12.02;;;4.40;94.30;;;;;;4909172;29;20044;-69
2022/03/19 03:52:24;;;;;;;24.42;10.50;;;4.40;97.90;;;;;;4899744;29;20048;-70
2022/03/19 03:54:53;;;;;;;24.13;11.80;;;4.40;99.90;;;;;;4901654;29;20068;-70
2022/03/19 03:57:21;;;;;;;23.90;11.25;;;4.40;99.90;;;;;;4897406;29;20057;-75
2022/03/19 03:59:50;;;;;;;26.83;11.68;;;4.30;99.90;;;;;;4882693;29;20100;-75
2022/03/19 04:02:18;;;;;;;25.05;12.27;;;4.30;99.90;;;;;;4907867;29;20062;-75
2022/03/19 04:04:47;;;;;;;37.50;13.15;;;4.30;99.90;;;;;;4915631;29;20108;-75
2022/03/19 04:07:15;;;;;;;27.13;12.55;;;4.30;99.90;;;;;;4901685;29;20055;-74
2022/03/19 04:09:42;;;;;;;28.98;12.63;;;4.30;99.90;;;;;;4915492;29;20054;-75
2022/03/19 04:12:11;;;;;;;31.42;13.32;;;4.30;99.90;;;;;;4914376;29;20474;-75
2022/03/19 04:14:39;;;;;;;31.40;13.23;;;4.20;99.90;;;;;;4902805;29;20203;-76
2022/03/19 04:17:06;;;;;;;30.98;13.90;;;4.20;99.90;;;;;;4904274;29;20115;-76
2022/03/19 04:19:34;;;;;;;48.30;17.75;;;4.20;99.90;;;;;;4911368;29;20048;-76
2022/03/19 04:22:03;;;;;;;25.10;13.13;;;4.20;99.90;;;;;;4909164;29;20091;-76
2022/03/19 04:24:30;;;;;;;27.60;13.75;;;4.30;99.90;;;;;;4913656;29;20051;-76
2022/03/19 04:26:58;;;;;;;28.05;15.00;;;4.20;99.90;;;;;;4893104;29;20055;-75
2022/03/19 04:29:26;;;;;;;28.42;13.82;;;4.20;99.90;;;;;;4915099;29;20132;-75
2022/03/19 04:31:53;;;;;;;28.73;14.45;;;4.20;99.90;;;;;;4909418;29;20058;-74
2022/03/19 04:34:21;;;;;;;33.47;14.38;;;4.30;99.90;;;;;;4903648;29;20559;-76
2022/03/19 04:36:48;;;;;;;31.17;14.95;;;4.30;99.90;;;;;;4903843;29;20071;-76
2022/03/19 04:39:24;;;;;;;32.83;15.40;;;4.30;99.90;;;;;;4903069;29;20493;-76
2022/03/19 04:41:52;;;;;;;31.42;14.70;;;4.30;99.90;;;;;;4910695;29;20056;-74
2022/03/19 04:44:22;;;;;;;27.45;15.43;;;4.30;99.90;;;;;;4909728;29;20084;-75
2022/03/19 04:46:49;;;;;;;34.78;16.08;;;4.30;99.90;;;;;;4901369;29;20589;-75
2022/03/19 04:49:17;;;;;;;27.63;14.18;;;4.40;99.90;;;;;;4912446;29;20040;-74
2022/03/19 04:51:45;;;;;;;32.10;15.73;;;4.40;99.90;;;;;;4920478;29;20128;-69
2022/03/19 04:54:13;;;;;;;31.20;15.93;;;4.40;99.90;;;;;;4913023;29;20053;-75
2022/03/19 04:56:42;;;;;;;29.90;14.75;;;4.40;99.90;;;;;;4893577;29;20433;-70
2022/03/19 04:59:11;;;;;;;32.72;16.73;;;4.40;99.90;;;;;;4916917;29;20031;-74
2022/03/19 05:01:40;;;;;;;37.60;18.58;;;4.40;99.90;;;;;;4915418;29;20058;-69
2022/03/19 05:04:08;;;;;;;31.60;17.65;;;4.40;99.90;;;;;;4915162;29;20138;-69
2022/03/19 05:06:36;;;;;;;33.90;18.10;;;4.50;99.90;;;;;;4913754;29;20469;-70
2022/03/19 05:11:53;;;;;;;36.08;18.40;;;4.60;99.90;;;;;;4925898;29;20418;-69
2022/03/19 05:14:21;;;;;;;36.83;17.95;;;4.60;99.90;;;;;;4904369;29;20159;-69
2022/03/19 05:16:48;;;;;;;37.15;19.25;;;4.60;99.90;;;;;;4914718;29;20064;-69
2022/03/19 05:19:15;;;;;;;38.40;20.00;;;4.60;99.90;;;;;;4916029;29;20420;-75
2022/03/19 05:21:43;;;;;;;42.58;21.92;;;4.60;99.90;;;;;;4914799;29;20055;-76
2022/03/19 05:24:11;;;;;;;43.38;21.58;;;4.60;99.90;;;;;;4912473;29;20075;-78
2022/03/19 05:26:38;;;;;;;42.10;23.02;;;4.60;99.90;;;;;;4911179;29;20416;-76
2022/03/19 05:29:11;;;;;;;45.35;24.60;;;4.70;99.90;;;;;;4912693;29;20626;-77
2022/03/19 05:31:39;;;;;;;49.10;24.00;;;4.70;99.90;;;;;;4913605;29;20056;-79
2022/03/19 05:34:32;;;;;;;42.95;23.52;;;4.70;99.90;;;;;;4903424;29;20076;-78
2022/03/19 05:37:01;;;;;;;44.47;24.90;;;4.80;99.90;;;;;;4914176;29;20500;-76
2022/03/19 05:39:29;;;;;;;42.72;22.55;;;4.70;99.90;;;;;;4912847;29;20103;-76
2022/03/19 05:41:58;;;;;;;43.08;23.88;;;4.80;99.90;;;;;;4907685;29;20056;-77
2022/03/19 05:44:27;;;;;;;44.78;24.70;;;4.80;99.90;;;;;;4930773;29;20059;-77
2022/03/19 05:46:54;;;;;;;41.40;22.63;;;4.90;99.90;;;;;;4932378;29;20500;-77
2022/03/19 05:49:22;;;;;;;44.10;22.45;;;4.90;99.90;;;;;;4922923;29;20075;-76
2022/03/19 05:51:50;;;;;;;44.17;23.02;;;4.90;99.90;;;;;;4911861;29;20056;-76
2022/03/19 05:54:18;;;;;;;44.55;23.92;;;4.90;99.90;;;;;;4913130;29;20127;-76
2022/03/19 05:56:46;;;;;;;47.88;23.92;;;4.90;99.90;;;;;;4913205;29;20060;-75
2022/03/19 05:59:13;;;;;;;42.22;23.27;;;5.00;99.90;;;;;;4918425;29;20497;-74
2022/03/19 06:01:43;;;;;;;42.38;23.77;;;5.00;99.90;;;;;;4917773;29;20518;-75
2022/03/19 06:04:11;;;;;;;42.80;23.33;;;5.10;99.90;;;;;;4904500;29;20055;-75
2022/03/19 06:06:39;;;;;;;38.85;22.10;;;5.10;99.90;;;;;;4879597;29;20064;-76
2022/03/19 06:09:06;;;;;;;40.50;21.48;;;5.10;99.90;;;;;;4897374;29;20429;-76
2022/03/19 06:11:34;;;;;;;41.78;22.85;;;5.10;99.90;;;;;;4915321;29;20521;-76
2022/03/19 06:14:02;;;;;;;37.35;20.48;;;5.20;99.90;;;;;;4915232;29;20480;-75
2022/03/19 06:16:29;;;;;;;36.92;20.95;;;5.20;99.90;;;;;;4913869;29;20552;-75
2022/03/19 06:18:58;;;;;;;38.83;21.05;;;5.20;99.90;;;;;;4912866;29;20048;-68
2022/03/19 06:21:26;;;;;;;40.03;20.77;;;5.20;99.90;;;;;;4912373;29;20060;-68
2022/03/19 06:23:54;;;;;;;43.65;20.67;;;5.20;99.90;;;;;;4901628;29;20351;-69
2022/03/19 06:26:23;;;;;;;38.92;19.42;;;5.20;99.90;;;;;;4905103;29;20059;-69
2022/03/19 06:28:50;;;;;;;36.03;20.90;;;5.20;99.90;;;;;;4921176;29;20111;-70
2022/03/19 06:31:18;;;;;;;36.67;20.80;;;5.20;99.90;;;;;;4912696;29;20048;-70
2022/03/19 06:33:45;;;;;;;36.53;21.63;;;5.20;99.90;;;;;;4914503;29;20049;-70
2022/03/19 06:39:00;;;;;;;39.20;20.63;;;5.20;99.90;;;;;;4914599;29;20107;-70
2022/03/19 06:41:28;;;;;;;34.60;19.77;;;5.30;99.90;;;;;;4913588;29;20048;-78
2022/03/19 06:43:56;;;;;;;35.25;19.88;;;5.30;99.90;;;;;;4914949;29;20524;-76
2022/03/19 06:46:24;;;;;;;39.10;21.88;;;5.30;99.90;;;;;;4913149;29;20058;-77
2022/03/19 06:48:52;;;;;;;40.65;22.45;;;5.30;99.90;;;;;;4933888;29;20059;-77
2022/03/19 06:51:22;;;;;;;37.50;20.40;;;5.30;99.90;;;;;;4929019;29;20540;-77
2022/03/19 06:53:50;;;;;;;34.65;21.60;;;5.30;99.90;;;;;;4914780;29;20059;-77
2022/03/19 06:56:18;;;;;;;30.38;19.20;;;5.40;99.90;;;;;;4900312;29;20126;-78
2022/03/19 06:58:47;;;;;;;32.75;18.60;;;5.40;99.90;;;;;;4900131;29;20138;-78
2022/03/19 07:01:17;;;;;;;43.33;20.83;;;5.40;99.90;;;;;;4890990;29;20398;-77
2022/03/19 07:03:47;;;;;;;30.67;19.00;;;5.40;99.90;;;;;;4917599;29;20051;-78
2022/03/19 07:06:17;;;;;;;35.42;17.67;;;5.30;99.90;;;;;;4919395;29;20155;-70
2022/03/19 07:08:46;;;;;;;29.63;16.85;;;5.30;99.90;;;;;;4897295;29;20082;-70
2022/03/19 07:11:14;;;;;;;33.47;20.13;;;5.30;99.90;;;;;;4907207;29;20143;-78
2022/03/19 07:13:43;;;;;;;38.88;20.83;;;5.10;99.90;;;;;;4894254;29;20047;-79
2022/03/19 07:16:12;;;;;;;34.50;19.83;;;5.10;99.90;;;;;;4918870;29;20086;-71
2022/03/19 07:18:41;;;;;;;37.65;20.15;;;5.00;99.90;;;;;;4918243;29;20052;-71
2022/03/19 07:21:10;;;;;;;29.85;19.45;;;5.00;99.90;;;;;;4926660;29;20564;-70
2022/03/19 07:23:38;;;;;;;32.42;20.25;;;5.10;99.90;;;;;;4925746;29;20043;-70
2022/03/19 07:26:07;;;;;;;33.85;19.48;;;5.10;99.90;;;;;;4925902;29;20051;-70
2022/03/19 07:28:35;;;;;;;37.28;21.15;;;5.00;99.90;;;;;;4923855;29;20063;-71
2022/03/19 07:31:04;;;;;;;35.33;19.58;;;5.10;99.90;;;;;;4935019;29;20048;-69
2022/03/19 07:33:34;;;;;;;36.08;20.02;;;5.10;99.90;;;;;;4922099;29;20048;-68
2022/03/19 07:36:03;;;;;;;40.85;21.30;;;5.00;99.90;;;;;;4925069;29;20075;-70
2022/03/19 07:38:31;;;;;;;31.60;18.90;;;5.00;99.90;;;;;;4927137;29;20135;-69
2022/03/19 07:43:46;;;;;;;40.47;21.20;;;5.20;99.90;;;;;;4924184;29;20060;-69
2022/03/19 07:46:14;;;;;;;36.35;20.80;;;5.30;99.90;;;;;;4924530;29;20048;-71
2022/03/19 07:48:41;;;;;;;36.38;20.48;;;5.30;99.90;;;;;;4941970;29;20047;-69
2022/03/19 07:51:09;;;;;;;39.75;20.67;;;5.30;99.90;;;;;;4924167;29;20088;-69
2022/03/19 07:53:38;;;;;;;42.35;22.52;;;5.30;99.90;;;;;;4923492;29;20052;-70
2022/03/19 07:56:06;;;;;;;41.60;20.52;;;5.40;99.90;;;;;;4922525;29;20036;-70
2022/03/19 07:58:33;;;;;;;35.97;20.77;;;5.40;99.90;;;;;;4924754;29;20094;-69
2022/03/19 08:01:02;;;;;;;35.80;21.40;;;5.40;99.90;;;;;;4917595;29;20044;-70
2022/03/19 08:03:30;;;;;;;33.00;20.67;;;5.40;99.90;;;;;;4926431;29;20070;-79
2022/03/19 08:06:00;;;;;;;78.55;24.23;;;5.50;99.90;;;;;;4927242;29;20576;-79
2022/03/19 08:08:28;;;;;;;36.83;19.45;;;5.50;99.90;;;;;;4924209;29;20059;-76
2022/03/19 08:10:55;;;;;;;40.78;21.67;;;5.50;99.90;;;;;;4924066;29;20059;-77
2022/03/19 08:13:23;;;;;;;43.55;21.90;;;5.40;99.90;;;;;;4902303;29;20082;-79
2022/03/19 08:15:51;;;;;;;37.30;22.77;;;5.50;99.90;;;;;;4917862;29;20099;-69
2022/03/19 08:18:20;;;;;;;44.30;22.77;;;5.40;99.90;;;;;;4916806;29;20079;-70
2022/03/19 08:20:48;;;;;;;37.15;21.40;;;5.50;99.90;;;;;;4914476;29;20049;-71
2022/03/19 08:23:16;;;;;;;39.90;22.25;;;5.50;99.90;;;;;;4910749;29;20051;-70
2022/03/19 08:25:43;;;;;;;44.20;22.40;;;5.50;99.90;;;;;;4924742;29;20052;-70
2022/03/19 08:28:12;;;;;;;39.28;20.85;;;5.50;99.90;;;;;;4924823;29;20044;-69
2022/03/19 08:30:40;;;;;;;33.85;20.67;;;5.50;99.90;;;;;;4923267;29;20055;-69
2022/03/19 08:33:07;;;;;;;33.65;19.65;;;5.50;99.90;;;;;;4924401;29;20048;-69
2022/03/19 08:35:36;;;;;;;41.08;20.60;;;5.50;99.90;;;;;;4925163;29;20114;-69
2022/03/19 08:40:48;;;;;;;31.77;19.23;;;5.50;99.90;;;;;;4922304;29;20517;-70
2022/03/19 08:43:16;;;;;;;38.22;20.42;;;5.50;99.90;;;;;;4920015;29;20047;-70
2022/03/19 08:45:43;;;;;;;29.13;17.10;;;5.50;99.90;;;;;;4924801;29;20417;-69
2022/03/19 08:48:11;;;;;;;27.80;16.67;;;5.50;99.90;;;;;;4920876;29;20498;-70
2022/03/19 08:50:40;;;;;;;26.63;16.88;;;5.50;99.90;;;;;;4909857;29;20044;-68
2022/03/19 08:53:07;;;;;;;30.27;17.42;;;5.50;99.90;;;;;;4914773;29;20120;-70
2022/03/19 08:55:35;;;;;;;29.33;17.75;;;5.50;99.90;;;;;;4915841;29;20056;-73
2022/03/19 08:58:03;;;;;;;29.58;17.23;;;5.50;99.90;;;;;;4913822;29;20052;-69
2022/03/19 09:00:33;;;;;;;33.75;18.27;;;5.50;99.90;;;;;;4914496;29;20060;-70
2022/03/19 09:03:00;;;;;;;29.70;17.25;;;5.50;99.90;;;;;;4899891;29;20460;-78
2022/03/19 09:05:28;;;;;;;33.20;17.30;;;5.60;99.90;;;;;;4931320;29;20048;-69
2022/03/19 09:07:57;;;;;;;28.92;17.35;;;5.60;99.90;;;;;;4915523;29;20153;-69
2022/03/19 09:10:24;;;;;;;29.30;17.15;;;5.60;99.90;;;;;;4897639;29;20063;-71
2022/03/19 09:12:52;;;;;;;29.85;17.15;;;5.60;99.90;;;;;;4897929;29;20057;-69
2022/03/19 09:15:19;;;;;;;33.80;17.52;;;5.60;99.90;;;;;;4911601;29;20131;-71
2022/03/19 09:17:47;;;;;;;29.38;16.27;;;5.60;99.90;;;;;;4915159;29;20044;-77
2022/03/19 09:20:14;;;;;;;28.90;17.08;;;5.70;99.90;;;;;;4918409;29;20096;-76
2022/03/19 09:22:44;;;;;;;26.30;15.73;;;5.70;99.90;;;;;;4910544;29;20048;-68
2022/03/19 09:25:14;;;;;;;31.67;17.73;;;5.70;99.90;;;;;;4917375;29;20056;-77
2022/03/19 09:27:41;;;;;;;37.08;16.92;;;5.80;99.90;;;;;;4914343;29;20056;-74
2022/03/19 09:30:11;;;;;;;29.90;16.13;;;5.80;99.90;;;;;;4914936;29;20094;-69
2022/03/19 09:32:38;;;;;;;35.13;17.30;;;5.90;99.90;;;;;;4916136;29;20052;-69
2022/03/19 09:35:08;;;;;;;31.38;16.60;;;5.80;99.90;;;;;;4914768;29;20059;-69
2022/03/19 09:37:38;;;;;;;26.65;16.20;;;5.80;99.90;;;;;;4901836;29;20056;-69
2022/03/19 09:40:07;;;;;;;28.27;16.15;;;5.80;99.90;;;;;;4933766;29;20512;-69
2022/03/19 09:42:48;;;;;;;34.53;16.25;;;5.80;99.90;;;;;;4935127;29;20075;-76
2022/03/19 09:45:19;;;;;;;26.50;16.23;;;5.80;99.90;;;;;;4917407;29;20099;-76
2022/03/19 09:47:48;;;;;;;31.63;15.65;;;5.90;99.90;;;;;;4906091;29;20075;-76
2022/03/19 09:50:16;;;;;;;30.67;16.35;;;5.90;99.90;;;;;;4898669;29;20505;-77
2022/03/19 09:52:45;;;;;;;26.33;15.70;;;5.90;99.90;;;;;;4916324;29;20055;-75
2022/03/19 09:55:15;;;;;;;28.90;17.00;;;5.90;99.90;;;;;;4914567;29;20098;-76
2022/03/19 09:57:45;;;;;;;31.83;16.95;;;6.00;99.90;;;;;;4901664;29;20060;-76
2022/03/19 10:00:14;;;;;;;39.45;18.42;;;5.90;99.90;;;;;;4896640;29;20395;-78
2022/03/19 10:02:54;;;;;;;29.98;16.88;;;5.90;99.90;;;;;;4898940;29;20126;-76
2022/03/19 10:10:53;;;;;;;38.92;18.25;;;5.90;99.90;;;;;;4896576;29;20161;-76
2022/03/19 10:13:23;;;;;;;30.05;17.10;;;5.90;99.90;;;;;;4926501;29;20068;-77
2022/03/19 10:15:50;;;;;;;29.55;17.90;;;5.80;99.90;;;;;;4902291;29;20060;-76
2022/03/19 10:18:18;;;;;;;34.55;18.50;;;5.80;99.90;;;;;;4907692;29;20052;-76
2022/03/19 10:20:46;;;;;;;32.75;18.52;;;5.90;99.90;;;;;;4910417;29;20048;-70
2022/03/19 10:23:13;;;;;;;33.58;17.50;;;5.90;99.90;;;;;;4910845;29;20056;-70
2022/03/19 10:25:42;;;;;;;30.85;17.88;;;6.00;99.90;;;;;;4926254;29;20414;-71
2022/03/19 10:28:11;;;;;;;31.05;17.13;;;6.00;99.90;;;;;;4910725;29;20139;-69
2022/03/19 10:30:42;;;;;;;26.35;17.13;;;6.00;99.90;;;;;;4907840;29;20106;-70
2022/03/19 10:33:11;;;;;;;29.80;17.23;;;6.00;99.90;;;;;;4910387;29;20059;-70
2022/03/19 10:35:41;;;;;;;31.58;18.27;;;6.00;99.90;;;;;;4909467;29;20056;-71
2022/03/19 10:38:19;;;;;;;32.42;18.15;;;6.10;99.90;;;;;;4910792;29;20548;-71
2022/03/19 10:40:51;;;;;;;33.20;17.83;;;6.10;99.90;;;;;;4910300;29;20052;-69
2022/03/19 10:43:20;;;;;;;28.75;18.33;;;6.10;99.90;;;;;;4927265;29;20056;-70
2022/03/19 10:45:51;;;;;;;29.23;18.27;;;6.10;99.90;;;;;;4913007;29;20063;-69
2022/03/19 10:48:20;;;;;;;33.20;18.67;;;6.00;99.90;;;;;;4914459;29;20412;-70
2022/03/19 10:50:49;;;;;;;34.95;19.10;;;6.00;99.90;;;;;;4913451;29;20064;-69
2022/03/19 10:53:19;;;;;;;31.38;18.00;;;6.10;99.90;;;;;;4915231;29;20123;-70
2022/03/19 10:55:47;;;;;;;32.65;16.42;;;6.10;99.90;;;;;;4914657;29;20052;-69
2022/03/19 10:58:14;;;;;;;32.75;18.52;;;6.10;99.90;;;;;;4901694;29;20056;-69
2022/03/19 11:00:43;;;;;;;30.83;17.75;;;6.00;99.90;;;;;;4896991;29;20076;-70
2022/03/19 11:03:18;;;;;;;38.13;19.23;;;5.90;99.90;;;;;;4914931;29;20386;-70
2022/03/19 11:05:47;;;;;;;31.42;16.73;;;5.90;99.90;;;;;;4912216;29;20150;-69
2022/03/19 11:08:16;;;;;;;34.65;18.70;;;5.90;99.90;;;;;;4912546;29;20087;-69
2022/03/19 11:10:44;;;;;;;31.73;17.70;;;5.80;99.90;;;;;;4914410;29;20048;-69
2022/03/19 11:13:17;;;;;;;32.03;17.30;;;6.00;99.90;;;;;;4914476;29;20432;-70
2022/03/19 11:15:45;;;;;;;26.83;16.08;;;6.00;99.90;;;;;;4912423;29;20532;-70
2022/03/19 11:18:13;;;;;;;28.13;15.85;;;6.10;99.90;;;;;;4913070;29;20058;-69
2022/03/19 11:20:43;;;;;;;30.70;17.00;;;6.20;99.90;;;;;;4913382;29;20052;-69
2022/03/19 11:23:12;;;;;;;30.38;16.27;;;6.10;99.90;;;;;;4914786;29;20497;-71
2022/03/19 11:25:48;;;;;;;33.25;17.02;;;6.10;99.90;;;;;;4897170;29;20521;-68
2022/03/19 11:28:17;;;;;;;29.88;16.92;;;6.20;99.90;;;;;;4895913;29;20060;-70
2022/03/19 11:30:59;;;;;;;32.58;17.30;;;6.20;99.90;;;;;;4894192;29;20151;-69
2022/03/19 11:33:31;;;;;;;31.90;15.68;;;6.20;99.90;;;;;;4899417;29;20100;-69
2022/03/19 11:36:11;;;;;;;32.78;16.33;;;6.30;99.90;;;;;;4914368;29;20168;-69
2022/03/19 11:38:50;;;;;;;29.38;16.88;;;6.30;99.90;;;;;;4914269;29;20540;-69
2022/03/19 11:41:22;;;;;;;33.97;17.10;;;6.40;99.90;;;;;;4914414;29;20056;-69
2022/03/19 11:43:51;;;;;;;36.67;18.27;;;6.40;99.90;;;;;;4916055;29;20056;-70
2022/03/19 11:46:18;;;;;;;31.10;17.27;;;6.40;99.90;;;;;;4916630;29;20066;-69
2022/03/19 11:48:50;;;;;;;39.38;18.02;;;6.40;99.90;;;;;;4913980;29;20052;-70
2022/03/19 11:51:22;;;;;;;36.85;18.27;;;6.50;99.90;;;;;;4907800;29;20052;-71
2022/03/19 11:53:54;;;;;;;36.97;19.17;;;6.50;99.90;;;;;;4917526;29;20048;-70
2022/03/19 11:56:23;;;;;;;39.72;20.38;;;6.50;99.90;;;;;;4917559;29;20497;-71
2022/03/19 11:58:51;;;;;;;38.38;19.70;;;6.50;99.90;;;;;;4916761;29;20513;-69
2022/03/19 12:01:18;;;;;;;40.72;20.50;;;6.60;99.90;;;;;;4915554;29;20048;-70
2022/03/19 12:04:11;;;;;;;37.65;20.20;;;6.60;99.90;;;;;;4916933;29;20130;-69
2022/03/19 12:06:40;;;;;;;34.50;18.17;;;6.60;99.90;;;;;;4928445;29;20621;-71
2022/03/19 12:09:08;;;;;;;36.67;20.08;;;6.60;99.90;;;;;;4899172;29;20084;-78
2022/03/19 12:11:36;;;;;;;40.45;21.15;;;6.60;99.90;;;;;;4916498;29;20100;-69
2022/03/19 12:14:10;;;;;;;41.10;22.20;;;6.60;99.90;;;;;;4909399;29;20585;-70
2022/03/19 12:16:40;;;;;;;43.75;23.80;;;6.70;99.90;;;;;;4915388;29;20056;-70
2022/03/19 12:19:09;;;;;;;49.92;23.30;;;6.70;99.90;;;;;;4914533;29;20044;-70
2022/03/19 12:21:41;;;;;;;56.30;27.02;;;6.60;99.90;;;;;;4916673;29;20083;-70
2022/03/19 12:24:24;;;;;;;54.45;25.17;;;6.60;99.90;;;;;;4914465;29;20063;-69
2022/03/19 12:26:51;;;;;;;55.00;27.83;;;6.60;99.90;;;;;;4914940;29;20509;-70
2022/03/19 12:29:20;;;;;;;47.40;24.10;;;6.50;99.90;;;;;;4915971;29;20131;-69
2022/03/19 12:31:50;;;;;;;49.60;23.10;;;6.50;99.90;;;;;;4906492;29;20155;-68
2022/03/19 12:34:22;;;;;;;49.42;25.13;;;6.50;99.90;;;;;;4896296;29;20057;-69
2022/03/19 12:36:58;;;;;;;46.33;20.95;;;6.50;99.90;;;;;;4895744;29;20545;-69
2022/03/19 12:39:25;;;;;;;47.28;22.25;;;6.60;99.90;;;;;;4896161;29;20087;-69
2022/03/19 12:41:53;;;;;;;41.58;21.88;;;6.60;99.90;;;;;;4897175;29;20518;-68
2022/03/19 12:44:24;;;;;;;46.45;22.50;;;6.50;99.90;;;;;;4911476;29;20437;-68
2022/03/19 12:46:57;;;;;;;47.08;23.25;;;6.40;99.90;;;;;;4911229;29;20043;-68
2022/03/19 12:49:26;;;;;;;44.25;23.50;;;6.50;99.90;;;;;;4915939;29;20056;-69
2022/03/19 12:51:56;;;;;;;50.03;23.83;;;6.40;99.90;;;;;;4916242;29;20052;-69
2022/03/19 12:54:28;;;;;;;42.75;20.30;;;6.40;99.90;;;;;;4915608;29;20060;-71
2022/03/19 12:56:58;;;;;;;43.20;20.40;;;6.40;99.90;;;;;;4914636;29;20056;-68
2022/03/19 12:59:30;;;;;;;39.85;19.20;;;6.40;99.90;;;;;;4915038;29;20056;-76
2022/03/19 13:01:59;;;;;;;41.78;17.95;;;6.40;99.90;;;;;;4908990;29;20535;-79
2022/03/19 13:04:28;;;;;;;37.90;19.40;;;6.40;99.90;;;;;;4911123;29;20048;-76
2022/03/19 13:07:00;;;;;;;39.17;19.48;;;6.30;99.90;;;;;;4906971;29;20052;-76
2022/03/19 13:09:32;;;;;;;30.77;16.10;;;6.20;99.90;;;;;;4912360;29;20107;-78